createdAt,value
2017-06-14T00:01:29.562Z,15.70
2017-06-14T00:03:57.118Z,15.60
2017-06-14T00:06:24.688Z,15.70
2017-06-14T00:08:52.227Z,15.60
2017-06-14T00:11:19.772Z,15.60
2017-06-14T00:13:47.344Z,15.60
2017-06-14T00:16:14.879Z,15.50
2017-06-14T00:18:42.422Z,15.50
2017-06-14T00:21:10.756Z,15.40
2017-06-14T00:23:38.625Z,15.40
2017-06-14T00:26:06.165Z,15.30
2017-06-14T00:28:33.740Z,15.30
2017-06-14T00:31:01.292Z,15.30
2017-06-14T00:33:28.841Z,15.20
2017-06-14T00:35:56.403Z,15.10
2017-06-14T00:38:23.941Z,15.00
2017-06-14T00:40:51.515Z,15.00
2017-06-14T00:43:19.061Z,14.90
2017-06-14T00:45:46.655Z,15.00
2017-06-14T00:48:14.519Z,14.90
2017-06-14T00:50:42.090Z,15.00
2017-06-14T00:53:09.624Z,15.00
2017-06-14T00:55:37.166Z,14.90
2017-06-14T00:58:04.758Z,14.80
2017-06-14T01:00:32.293Z,14.70
2017-06-14T01:02:59.824Z,14.70
2017-06-14T01:05:28.154Z,14.50
2017-06-14T01:07:55.694Z,14.50
2017-06-14T01:10:23.248Z,14.50
2017-06-14T01:12:50.777Z,14.40
2017-06-14T01:15:19.344Z,14.40
2017-06-14T01:17:47.642Z,14.30
2017-06-14T01:20:15.222Z,14.30
2017-06-14T01:22:43.050Z,14.20
2017-06-14T01:25:11.379Z,14.10
2017-06-14T01:27:39.039Z,14.10
2017-06-14T01:30:06.573Z,14.00
2017-06-14T01:32:34.108Z,13.90
2017-06-14T01:35:02.453Z,13.80
2017-06-14T01:37:30.013Z,13.70
2017-06-14T01:39:57.566Z,13.70
2017-06-14T01:42:25.119Z,13.60
2017-06-14T01:44:52.683Z,13.50
2017-06-14T01:47:20.231Z,13.40
2017-06-14T01:49:47.794Z,13.40
2017-06-14T01:52:15.322Z,13.40
2017-06-14T01:54:42.859Z,13.30
2017-06-14T01:57:11.278Z,13.20
2017-06-14T01:59:38.807Z,13.20
2017-06-14T02:02:07.106Z,13.10
2017-06-14T02:04:34.670Z,13.10
2017-06-14T02:07:02.198Z,13.10
2017-06-14T02:09:30.513Z,13.00
2017-06-14T02:11:58.088Z,13.00
2017-06-14T02:14:25.637Z,13.00
2017-06-14T02:16:53.193Z,12.90
2017-06-14T02:19:20.753Z,12.70
2017-06-14T02:21:48.298Z,12.60
2017-06-14T02:24:15.832Z,12.40
2017-06-14T02:26:44.162Z,12.30
2017-06-14T02:29:11.701Z,12.30
2017-06-14T02:31:39.241Z,12.20
2017-06-14T02:34:06.855Z,12.20
2017-06-14T02:36:34.395Z,12.10
2017-06-14T02:39:01.934Z,12.00
2017-06-14T02:41:29.499Z,11.90
2017-06-14T02:43:57.031Z,11.80
2017-06-14T02:46:24.582Z,11.80
2017-06-14T02:48:52.919Z,11.80
2017-06-14T02:51:20.458Z,11.80
2017-06-14T02:53:48.017Z,11.80
2017-06-14T02:56:15.586Z,11.80
2017-06-14T02:58:43.122Z,11.80
2017-06-14T03:01:10.670Z,11.80
2017-06-14T03:03:38.234Z,11.70
2017-06-14T03:06:05.771Z,11.80
2017-06-14T03:08:34.108Z,11.70
2017-06-14T03:11:01.776Z,11.70
2017-06-14T03:13:29.318Z,11.60
2017-06-14T03:15:56.858Z,11.50
2017-06-14T03:18:24.409Z,11.50
2017-06-14T03:20:57.722Z,11.50
2017-06-14T03:23:25.286Z,11.50
2017-06-14T03:25:52.826Z,11.50
2017-06-14T03:28:20.380Z,11.50
2017-06-14T03:30:47.978Z,11.50
2017-06-14T03:33:15.534Z,11.50
2017-06-14T03:35:43.182Z,11.50
2017-06-14T03:38:10.751Z,11.50
2017-06-14T03:40:38.307Z,11.60
2017-06-14T03:43:05.847Z,11.70
2017-06-14T03:45:33.409Z,11.80
2017-06-14T03:48:00.959Z,11.80
2017-06-14T03:50:28.507Z,11.80
2017-06-14T03:52:56.070Z,11.80
2017-06-14T03:55:23.611Z,11.80
2017-06-14T03:57:51.925Z,11.80
2017-06-14T04:00:19.539Z,11.80
2017-06-14T04:02:47.071Z,11.70
2017-06-14T04:05:14.603Z,11.70
2017-06-14T04:07:42.152Z,11.70
2017-06-14T04:10:09.698Z,11.70
2017-06-14T04:12:37.274Z,11.70
2017-06-14T04:15:05.057Z,11.80
2017-06-14T04:17:32.586Z,11.90
2017-06-14T04:20:00.182Z,11.90
2017-06-14T04:22:27.742Z,12.00
2017-06-14T04:24:55.278Z,12.20
2017-06-14T04:27:22.844Z,12.30
2017-06-14T04:29:50.387Z,12.50
2017-06-14T04:32:17.982Z,12.70
2017-06-14T04:34:45.556Z,12.90
2017-06-14T04:37:13.101Z,13.10
2017-06-14T04:39:40.649Z,13.20
2017-06-14T04:42:08.210Z,13.50
2017-06-14T04:44:35.763Z,13.60
2017-06-14T04:47:03.333Z,13.80
2017-06-14T04:49:30.909Z,14.00
2017-06-14T04:51:58.451Z,14.00
2017-06-14T04:54:26.018Z,14.20
2017-06-14T04:56:53.684Z,14.30
2017-06-14T04:59:21.325Z,14.40
2017-06-14T05:01:48.894Z,14.50
2017-06-14T05:04:16.431Z,14.60
2017-06-14T05:06:44.015Z,14.70
2017-06-14T05:09:11.585Z,14.80
2017-06-14T05:11:39.131Z,14.90
2017-06-14T05:14:06.680Z,15.00
2017-06-14T05:16:34.250Z,15.20
2017-06-14T05:19:01.832Z,15.20
2017-06-14T05:21:29.372Z,15.40
2017-06-14T05:23:56.960Z,15.50
2017-06-14T05:26:24.882Z,15.60
2017-06-14T05:28:52.432Z,15.60
2017-06-14T05:31:20.006Z,15.80
2017-06-14T05:33:47.611Z,15.90
2017-06-14T05:36:15.327Z,16.00
2017-06-14T05:38:42.865Z,16.00
2017-06-14T05:41:10.461Z,16.10
2017-06-14T05:43:38.037Z,16.30
2017-06-14T05:46:05.574Z,16.40
2017-06-14T05:48:33.107Z,16.50
2017-06-14T05:51:00.679Z,16.60
2017-06-14T05:53:28.241Z,16.60
2017-06-14T05:55:55.769Z,16.70
2017-06-14T05:58:24.097Z,17.00
2017-06-14T06:00:51.659Z,17.00
2017-06-14T06:03:19.201Z,17.10
2017-06-14T06:05:46.722Z,17.10
2017-06-14T06:08:15.050Z,17.30
2017-06-14T06:10:42.598Z,17.30
2017-06-14T06:13:10.130Z,17.40
2017-06-14T06:15:37.722Z,17.50
2017-06-14T06:18:05.374Z,17.60
2017-06-14T06:20:32.920Z,17.70
2017-06-14T06:23:00.502Z,17.70
2017-06-14T06:25:28.050Z,17.80
2017-06-14T06:27:55.594Z,17.90
2017-06-14T06:30:23.152Z,18.00
2017-06-14T06:32:50.694Z,17.90
2017-06-14T06:35:18.992Z,18.20
2017-06-14T06:37:46.736Z,18.20
2017-06-14T06:40:14.304Z,18.30
2017-06-14T06:42:41.844Z,18.30
2017-06-14T06:45:10.149Z,18.40
2017-06-14T06:47:37.709Z,18.40
2017-06-14T06:50:05.254Z,18.50
2017-06-14T06:52:32.821Z,18.60
2017-06-14T06:55:00.359Z,18.70
2017-06-14T06:57:28.692Z,18.70
2017-06-14T06:59:56.252Z,18.70
2017-06-14T07:02:23.787Z,18.70
2017-06-14T07:04:51.354Z,18.70
2017-06-14T07:07:18.899Z,18.90
2017-06-14T07:09:46.433Z,19.00
2017-06-14T07:12:14.774Z,19.10
2017-06-14T07:14:42.298Z,19.10
2017-06-14T07:17:09.836Z,19.20
2017-06-14T07:19:37.446Z,19.30
2017-06-14T07:22:04.979Z,19.50
2017-06-14T07:24:32.522Z,19.50
2017-06-14T07:27:00.084Z,19.60
2017-06-14T07:29:28.535Z,19.70
2017-06-14T07:31:56.838Z,19.70
2017-06-14T07:34:24.406Z,19.70
2017-06-14T07:36:51.959Z,19.70
2017-06-14T07:39:19.528Z,19.80
2017-06-14T07:41:47.046Z,19.90
2017-06-14T07:44:15.391Z,20.00
2017-06-14T07:46:42.944Z,19.90
2017-06-14T07:49:10.478Z,20.20
2017-06-14T07:51:38.098Z,20.30
2017-06-14T07:54:05.635Z,20.40
2017-06-14T07:56:33.197Z,20.40
2017-06-14T07:59:00.772Z,20.60
2017-06-14T08:01:28.305Z,20.60
2017-06-14T08:03:55.839Z,20.40
2017-06-14T08:06:23.415Z,20.30
2017-06-14T08:08:50.953Z,20.30
2017-06-14T08:11:18.487Z,20.50
2017-06-14T08:13:46.807Z,21.00
2017-06-14T08:16:14.346Z,20.90
2017-06-14T08:18:41.903Z,21.00
2017-06-14T08:21:09.432Z,21.00
2017-06-14T08:23:37.761Z,21.50
2017-06-14T08:26:05.327Z,21.50
2017-06-14T08:28:32.865Z,21.50
2017-06-14T08:31:00.390Z,21.40
2017-06-14T08:33:28.725Z,21.20
2017-06-14T08:35:56.266Z,21.20
2017-06-14T08:38:23.806Z,21.30
2017-06-14T08:40:51.375Z,21.40
2017-06-14T08:43:18.910Z,21.30
2017-06-14T08:45:47.210Z,21.90
2017-06-14T08:48:14.801Z,21.90
2017-06-14T08:50:42.336Z,21.60
2017-06-14T08:53:09.876Z,21.30
2017-06-14T08:55:37.442Z,21.20
2017-06-14T08:58:04.983Z,21.40
2017-06-14T09:00:33.301Z,21.50
2017-06-14T09:03:00.861Z,21.40
2017-06-14T09:05:28.436Z,21.40
2017-06-14T09:07:55.969Z,21.40
2017-06-14T09:10:23.539Z,21.40
2017-06-14T09:12:51.117Z,21.30
2017-06-14T09:15:18.649Z,21.30
2017-06-14T09:17:46.182Z,21.40
2017-06-14T09:20:14.518Z,21.30
2017-06-14T09:22:42.053Z,21.30
2017-06-14T09:25:09.625Z,21.40
2017-06-14T09:27:37.195Z,21.60
2017-06-14T09:30:04.729Z,21.80
2017-06-14T09:32:32.258Z,22.00
2017-06-14T09:35:00.584Z,22.00
2017-06-14T09:37:28.111Z,22.00
2017-06-14T09:39:55.698Z,21.90
2017-06-14T09:42:23.260Z,21.90
2017-06-14T09:44:50.801Z,21.90
2017-06-14T09:47:18.337Z,21.90
2017-06-14T09:49:45.937Z,21.90
2017-06-14T09:52:13.467Z,22.10
2017-06-14T09:54:41.057Z,22.20
2017-06-14T09:57:08.621Z,22.20
2017-06-14T09:59:36.158Z,22.10
2017-06-14T10:02:03.719Z,22.10
2017-06-14T10:04:31.254Z,22.30
2017-06-14T10:06:58.799Z,22.50
2017-06-14T10:09:27.231Z,22.60
2017-06-14T10:11:54.777Z,22.60
2017-06-14T10:14:22.343Z,22.50
2017-06-14T10:16:49.911Z,22.50
2017-06-14T10:19:17.459Z,22.40
2017-06-14T10:21:44.988Z,22.50
2017-06-14T10:24:12.790Z,22.80
2017-06-14T10:26:40.366Z,22.70
2017-06-14T10:29:07.900Z,22.90
2017-06-14T10:31:35.447Z,23.00
2017-06-14T10:34:03.026Z,22.90
2017-06-14T10:36:30.554Z,22.70
2017-06-14T10:38:58.088Z,22.80
2017-06-14T10:41:26.430Z,23.10
2017-06-14T10:43:53.954Z,23.00
2017-06-14T10:46:21.542Z,23.30
2017-06-14T10:48:49.108Z,23.70
2017-06-14T10:51:16.656Z,24.00
2017-06-14T10:53:44.185Z,24.10
2017-06-14T10:56:11.741Z,24.10
2017-06-14T10:58:39.275Z,24.10
2017-06-14T11:01:07.619Z,24.40
2017-06-14T11:03:35.154Z,24.40
2017-06-14T11:06:02.691Z,24.50
2017-06-14T11:08:30.285Z,24.80
2017-06-14T11:10:57.855Z,24.70
2017-06-14T11:13:25.386Z,24.80
2017-06-14T11:15:52.973Z,25.30
2017-06-14T11:18:20.503Z,26.20
2017-06-14T11:20:48.087Z,27.50
2017-06-14T11:23:15.656Z,28.50
2017-06-14T11:25:43.198Z,29.00
2017-06-14T11:28:10.750Z,29.60
2017-06-14T11:30:38.353Z,29.80
2017-06-14T11:33:06.332Z,30.50
2017-06-14T11:35:33.872Z,31.80
2017-06-14T11:38:01.439Z,32.90
2017-06-14T11:40:28.984Z,33.00
2017-06-14T11:42:56.520Z,33.90
2017-06-14T11:45:24.085Z,34.10
2017-06-14T11:47:51.625Z,34.10
2017-06-14T11:50:19.154Z,35.20
2017-06-14T11:52:47.497Z,35.90
2017-06-14T11:55:15.033Z,35.80
2017-06-14T11:57:42.574Z,36.80
2017-06-14T12:00:10.144Z,37.40
2017-06-14T12:02:37.697Z,37.80
2017-06-14T12:05:05.245Z,38.70
2017-06-14T12:07:33.157Z,38.50
2017-06-14T12:10:00.727Z,38.60
2017-06-14T12:12:28.275Z,38.90
2017-06-14T12:14:55.875Z,39.90
2017-06-14T12:17:24.207Z,41.60
2017-06-14T12:19:51.779Z,41.50
2017-06-14T12:22:19.395Z,42.20
2017-06-14T12:24:46.983Z,42.60
2017-06-14T12:27:14.563Z,41.50
2017-06-14T12:29:42.144Z,40.70
2017-06-14T12:32:10.486Z,41.70
2017-06-14T12:34:38.037Z,41.70
2017-06-14T12:37:05.614Z,42.20
2017-06-14T12:39:33.170Z,42.20
2017-06-14T12:42:00.720Z,41.80
2017-06-14T12:44:28.292Z,41.70
2017-06-14T12:46:55.832Z,43.10
2017-06-14T12:49:23.468Z,41.90
2017-06-14T12:51:51.153Z,43.00
2017-06-14T12:54:18.707Z,43.50
2017-06-14T12:56:46.256Z,43.60
2017-06-14T12:59:13.851Z,43.20
2017-06-14T13:01:41.404Z,43.60
2017-06-14T13:04:08.979Z,44.10
2017-06-14T13:06:36.533Z,44.00
2017-06-14T13:09:04.112Z,44.30
2017-06-14T13:11:31.672Z,44.60
2017-06-14T13:13:59.221Z,43.90
2017-06-14T13:16:26.796Z,42.90
2017-06-14T13:18:55.127Z,43.80
2017-06-14T13:21:22.664Z,43.80
2017-06-14T13:23:50.239Z,44.90
2017-06-14T13:26:17.791Z,44.50
2017-06-14T13:28:45.367Z,45.30
2017-06-14T13:31:12.921Z,44.30
2017-06-14T13:33:40.458Z,43.20
2017-06-14T13:36:08.043Z,42.70
2017-06-14T13:38:35.579Z,41.70
2017-06-14T13:41:03.110Z,41.90
2017-06-14T13:43:31.446Z,41.30
2017-06-14T13:45:58.982Z,41.20
2017-06-14T13:48:26.514Z,40.70
2017-06-14T13:50:54.842Z,40.50
2017-06-14T13:53:22.374Z,40.50
2017-06-14T13:55:49.962Z,40.50
2017-06-14T13:58:17.524Z,40.70
2017-06-14T14:00:45.082Z,41.20
2017-06-14T14:03:12.654Z,42.30
2017-06-14T14:05:40.198Z,41.00
2017-06-14T14:08:07.750Z,41.20
2017-06-14T14:10:35.283Z,42.70
2017-06-14T14:13:02.820Z,41.90
2017-06-14T14:15:30.399Z,41.90
2017-06-14T14:17:57.953Z,41.80
2017-06-14T14:20:25.485Z,42.10
2017-06-14T14:22:53.117Z,42.00
2017-06-14T14:25:20.647Z,41.30
2017-06-14T14:27:48.194Z,41.50
2017-06-14T14:30:15.777Z,42.20
2017-06-14T14:32:43.351Z,43.40
2017-06-14T14:35:10.892Z,44.30
2017-06-14T14:37:38.498Z,44.60
2017-06-14T14:40:06.026Z,44.40
2017-06-14T14:42:33.562Z,44.20
2017-06-14T14:45:01.133Z,43.70
2017-06-14T14:47:28.728Z,44.20
2017-06-14T14:49:56.306Z,43.60
2017-06-14T14:52:24.618Z,42.40
2017-06-14T14:54:52.146Z,42.40
2017-06-14T14:57:20.484Z,43.80
2017-06-14T14:59:48.020Z,43.80
2017-06-14T15:02:15.546Z,42.70
2017-06-14T15:04:43.877Z,41.60
2017-06-14T15:07:11.413Z,41.60
2017-06-14T15:09:38.991Z,41.60
2017-06-14T15:12:06.517Z,41.40
2017-06-14T15:14:34.878Z,42.20
2017-06-14T15:17:02.819Z,42.60
2017-06-14T15:19:30.359Z,42.50
2017-06-14T15:21:57.902Z,41.90
2017-06-14T15:24:25.457Z,40.30
2017-06-14T15:26:53.004Z,39.90
2017-06-14T15:29:20.543Z,40.10
2017-06-14T15:31:48.107Z,41.10
2017-06-14T15:34:15.685Z,40.10
2017-06-14T15:36:43.232Z,39.30
2017-06-14T15:39:10.804Z,38.20
2017-06-14T15:41:38.363Z,39.10
2017-06-14T15:44:05.926Z,39.60
2017-06-14T15:46:33.503Z,38.40
2017-06-14T15:49:01.292Z,37.40
2017-06-14T15:51:29.618Z,37.80
2017-06-14T15:53:57.186Z,37.80
2017-06-14T15:56:24.744Z,38.60
2017-06-14T15:58:52.315Z,38.70
2017-06-14T16:01:19.883Z,38.00
2017-06-14T16:03:47.428Z,37.40
2017-06-14T16:06:15.006Z,37.10
2017-06-14T16:08:43.362Z,37.40
2017-06-14T16:11:10.920Z,37.30
2017-06-14T16:13:38.478Z,37.80
2017-06-14T16:16:06.059Z,37.40
2017-06-14T16:18:33.596Z,38.10
2017-06-14T16:21:01.147Z,37.60
2017-06-14T16:23:28.763Z,37.70
2017-06-14T16:25:56.317Z,36.70
2017-06-14T16:28:24.635Z,35.00
2017-06-14T16:30:52.209Z,35.00
2017-06-14T16:33:19.854Z,33.90
2017-06-14T16:35:47.397Z,33.40
2017-06-14T16:38:15.072Z,33.10
2017-06-14T16:40:42.609Z,32.20
2017-06-14T16:43:10.142Z,31.50
2017-06-14T16:45:38.472Z,30.20
2017-06-14T16:48:06.050Z,30.10
2017-06-14T16:50:33.580Z,29.50
2017-06-14T16:53:01.158Z,29.00
2017-06-14T16:55:28.693Z,28.50
2017-06-14T16:57:56.234Z,28.20
2017-06-14T17:00:23.794Z,27.60
2017-06-14T17:02:51.318Z,27.20
2017-06-14T17:05:18.932Z,26.80
2017-06-14T17:07:46.489Z,26.70
2017-06-14T17:10:14.016Z,26.60
2017-06-14T17:12:41.559Z,26.40
2017-06-14T17:15:09.892Z,26.10
2017-06-14T17:17:37.429Z,26.10
2017-06-14T17:20:04.976Z,26.10
2017-06-14T17:22:32.555Z,26.10
2017-06-14T17:25:00.119Z,26.00
2017-06-14T17:27:27.653Z,26.00
2017-06-14T17:29:55.210Z,26.00
2017-06-14T17:32:22.773Z,25.90
2017-06-14T17:34:50.367Z,25.90
2017-06-14T17:37:17.905Z,25.90
2017-06-14T17:39:45.451Z,26.00
2017-06-14T17:42:13.023Z,25.90
2017-06-14T17:44:40.563Z,25.90
2017-06-14T17:47:08.154Z,25.80
2017-06-14T17:49:35.718Z,25.80
2017-06-14T17:52:03.278Z,25.70
2017-06-14T17:54:30.815Z,25.80
2017-06-14T17:56:58.396Z,25.90
2017-06-14T17:59:26.034Z,25.80
2017-06-14T18:01:53.596Z,25.60
2017-06-14T18:04:21.178Z,25.40
2017-06-14T18:06:48.716Z,25.10
2017-06-14T18:09:16.254Z,24.80
2017-06-14T18:11:43.838Z,24.60
2017-06-14T18:14:11.390Z,24.40
2017-06-14T18:16:38.928Z,24.20
2017-06-14T18:19:06.517Z,24.10
2017-06-14T18:21:34.156Z,24.00
2017-06-14T18:24:01.695Z,23.80
2017-06-14T18:26:29.635Z,23.70
2017-06-14T18:28:57.177Z,23.70
2017-06-14T18:31:24.715Z,23.60
2017-06-14T18:33:52.303Z,23.50
2017-06-14T18:36:19.841Z,23.40
2017-06-14T18:38:47.493Z,23.30
2017-06-14T18:41:15.063Z,23.10
2017-06-14T18:43:42.601Z,23.00
2017-06-14T18:46:10.207Z,22.90
2017-06-14T18:48:37.773Z,22.70
2017-06-14T18:51:05.326Z,22.60
2017-06-14T18:53:32.858Z,22.50
2017-06-14T18:56:00.431Z,22.30
2017-06-14T18:58:27.974Z,22.20
2017-06-14T19:00:55.510Z,22.10
2017-06-14T19:03:23.116Z,22.00
2017-06-14T19:05:50.689Z,21.90
2017-06-14T19:08:18.272Z,21.70
2017-06-14T19:10:45.809Z,21.60
2017-06-14T19:13:14.134Z,21.40
2017-06-14T19:15:41.719Z,21.40
2017-06-14T19:18:09.410Z,21.20
2017-06-14T19:20:37.768Z,21.10
2017-06-14T19:23:05.319Z,21.10
2017-06-14T19:25:38.537Z,21.00
2017-06-14T19:28:07.181Z,20.70
2017-06-14T19:30:41.482Z,20.70
2017-06-14T19:33:09.055Z,20.60
2017-06-14T19:35:36.640Z,20.50
2017-06-14T19:38:04.229Z,20.40
2017-06-14T19:40:32.071Z,20.30
2017-06-14T19:43:00.391Z,20.00
2017-06-14T19:45:28.062Z,20.00
2017-06-14T19:47:55.657Z,19.90
2017-06-14T19:50:23.196Z,19.80
2017-06-14T19:52:50.765Z,19.80
2017-06-14T19:55:18.324Z,19.70
2017-06-14T19:57:45.882Z,19.70
2017-06-14T20:00:13.451Z,19.60
2017-06-14T20:02:40.986Z,19.50
2017-06-14T20:05:08.530Z,19.50
2017-06-14T20:07:36.100Z,19.40
2017-06-14T20:10:03.646Z,19.40
2017-06-14T20:12:31.196Z,19.30
2017-06-14T20:14:58.818Z,19.30
2017-06-14T20:17:27.144Z,19.10
2017-06-14T20:19:54.711Z,19.10
2017-06-14T20:22:22.318Z,19.00
2017-06-14T20:24:50.686Z,18.80
2017-06-14T20:27:18.230Z,18.80
2017-06-14T20:29:45.804Z,18.70
2017-06-14T20:32:14.152Z,18.50
2017-06-14T20:34:41.721Z,18.50
2017-06-14T20:37:09.333Z,18.50
2017-06-14T20:39:36.880Z,18.40
2017-06-14T20:42:04.448Z,18.40
2017-06-14T20:44:32.036Z,18.30
2017-06-14T20:46:59.623Z,18.20
2017-06-14T20:49:27.177Z,18.10
2017-06-14T20:51:54.833Z,18.00
2017-06-14T20:54:22.387Z,18.00
2017-06-14T20:56:49.949Z,17.90
2017-06-14T20:59:17.534Z,17.80
2017-06-14T21:01:45.900Z,17.70
2017-06-14T21:04:13.462Z,17.70
2017-06-14T21:06:41.013Z,17.60
2017-06-14T21:09:08.589Z,17.60
2017-06-14T21:11:36.916Z,17.40
2017-06-14T21:14:04.498Z,17.40
2017-06-14T21:16:32.048Z,17.30
2017-06-14T21:18:59.598Z,17.30
2017-06-14T21:21:27.154Z,17.20
2017-06-14T21:23:54.714Z,17.10
2017-06-14T21:26:22.299Z,17.10
2017-06-14T21:28:49.858Z,16.90
2017-06-14T21:31:17.390Z,16.80
2017-06-14T21:33:44.972Z,16.80
2017-06-14T21:36:12.515Z,16.70
2017-06-14T21:38:40.055Z,16.60
2017-06-14T21:41:07.729Z,16.50
2017-06-14T21:43:35.279Z,16.50
2017-06-14T21:46:02.835Z,16.40
2017-06-14T21:48:30.407Z,16.40
2017-06-14T21:50:57.981Z,16.30
2017-06-14T21:53:25.519Z,16.20
2017-06-14T21:55:53.067Z,16.20
2017-06-14T21:58:20.860Z,16.10
2017-06-14T22:00:48.417Z,16.10
2017-06-14T22:03:21.846Z,16.10
2017-06-14T22:05:49.373Z,16.00
2017-06-14T22:08:16.926Z,16.00
2017-06-14T22:10:44.517Z,16.00
2017-06-14T22:13:12.148Z,15.90
2017-06-14T22:15:39.675Z,15.90
2017-06-14T22:18:07.228Z,15.80
2017-06-14T22:20:35.510Z,15.80
2017-06-14T22:23:03.118Z,15.70
2017-06-14T22:25:30.666Z,15.80
2017-06-14T22:27:58.330Z,15.80
2017-06-14T22:30:25.890Z,15.70
2017-06-14T22:32:53.539Z,15.70
2017-06-14T22:35:21.099Z,15.70
2017-06-14T22:37:48.762Z,15.70
2017-06-14T22:40:16.326Z,15.70
2017-06-14T22:42:43.885Z,15.70
2017-06-14T22:45:11.445Z,15.60
2017-06-14T22:47:39.014Z,15.50
2017-06-14T22:50:06.764Z,15.40
2017-06-14T22:52:34.338Z,15.30
2017-06-14T22:55:01.889Z,15.20
2017-06-14T22:57:29.647Z,15.10
2017-06-14T22:59:57.308Z,15.10
2017-06-14T23:02:24.872Z,15.10
2017-06-14T23:04:52.433Z,15.10
2017-06-14T23:07:19.968Z,15.10
2017-06-14T23:09:47.767Z,15.00
2017-06-14T23:12:15.323Z,14.90
2017-06-14T23:14:42.878Z,14.80
2017-06-14T23:17:10.414Z,14.70
2017-06-14T23:19:37.979Z,14.60
2017-06-14T23:22:05.558Z,14.60
2017-06-14T23:24:33.214Z,14.50
2017-06-14T23:27:00.758Z,14.40
2017-06-14T23:29:28.338Z,14.30
2017-06-14T23:31:56.009Z,14.30
2017-06-14T23:34:23.656Z,14.20
2017-06-14T23:36:51.221Z,14.20
2017-06-14T23:39:18.775Z,14.20
2017-06-14T23:41:46.329Z,14.20
2017-06-14T23:44:13.863Z,14.10
2017-06-14T23:46:42.153Z,14.00
2017-06-14T23:49:09.747Z,14.00
2017-06-14T23:51:37.395Z,14.00
2017-06-14T23:54:04.961Z,14.00
2017-06-14T23:56:32.622Z,14.00
2017-06-14T23:59:00.154Z,13.90
